createdAt,value
2023-03-05T00:00:50.890Z,4.28
2023-03-05T00:01:50.893Z,4.36
2023-03-05T00:02:50.907Z,4.28
2023-03-05T00:03:50.917Z,4.24
2023-03-05T00:04:50.867Z,4.24
2023-03-05T00:05:50.822Z,4.14
2023-03-05T00:06:50.821Z,4.06
2023-03-05T00:07:50.848Z,4.14
2023-03-05T00:08:50.793Z,4.18
2023-03-05T00:09:50.798Z,4.22
2023-03-05T00:10:50.805Z,4.26
2023-03-05T00:11:50.753Z,4.16
2023-03-05T00:12:50.753Z,4.12
2023-03-05T00:13:50.728Z,4.03
2023-03-05T00:14:50.730Z,4.04
2023-03-05T00:15:50.736Z,4.00
2023-03-05T00:16:50.798Z,4.04
2023-03-05T00:17:50.685Z,4.01
2023-03-05T00:18:50.692Z,4.06
2023-03-05T00:19:50.683Z,4.06
2023-03-05T00:20:50.682Z,4.04
2023-03-05T00:21:50.662Z,4.04
2023-03-05T00:22:50.654Z,4.03
2023-03-05T00:23:50.639Z,4.04
2023-03-05T00:24:50.630Z,4.01
2023-03-05T00:25:50.620Z,4.01
2023-03-05T00:26:50.620Z,3.97
2023-03-05T00:27:50.595Z,3.96
2023-03-05T00:28:50.581Z,3.98
2023-03-05T00:29:50.571Z,4.03
2023-03-05T00:30:50.671Z,4.00
2023-03-05T00:31:50.566Z,4.07
2023-03-05T00:32:50.557Z,4.04
2023-03-05T00:33:50.649Z,4.08
2023-03-05T00:34:50.558Z,4.10
2023-03-05T00:35:50.594Z,4.14
2023-03-05T00:36:50.521Z,4.15
2023-03-05T00:37:50.500Z,4.21
2023-03-05T00:38:50.493Z,4.21
2023-03-05T00:39:50.511Z,4.16
2023-03-05T00:40:50.469Z,4.21
2023-03-05T00:41:50.456Z,4.19
2023-03-05T00:42:50.451Z,4.15
2023-03-05T00:43:50.474Z,4.15
2023-03-05T00:44:50.436Z,4.10
2023-03-05T00:45:50.498Z,4.12
2023-03-05T00:46:50.468Z,4.18
2023-03-05T00:47:50.411Z,4.16
2023-03-05T00:48:50.416Z,4.22
2023-03-05T00:49:50.393Z,4.22
2023-03-05T00:50:50.374Z,4.24
2023-03-05T00:51:50.390Z,4.24
2023-03-05T00:52:50.348Z,4.29
2023-03-05T00:53:50.350Z,4.34
2023-03-05T00:54:50.321Z,4.36
2023-03-05T00:55:50.328Z,4.36
2023-03-05T00:56:50.315Z,4.37
2023-03-05T00:57:50.354Z,4.32
2023-03-05T00:58:50.279Z,4.26
2023-03-05T00:59:50.320Z,4.24
2023-03-05T01:00:50.273Z,4.24
2023-03-05T01:01:50.361Z,4.22
2023-03-05T01:02:50.233Z,4.28
2023-03-05T01:03:50.260Z,4.29
2023-03-05T01:04:50.287Z,4.28
2023-03-05T01:05:50.216Z,4.22
2023-03-05T01:06:50.264Z,4.25
2023-03-05T01:07:50.199Z,4.26
2023-03-05T01:08:50.174Z,4.18
2023-03-05T01:09:50.197Z,4.15
2023-03-05T01:10:50.144Z,4.15
2023-03-05T01:11:50.156Z,4.22
2023-03-05T01:12:50.153Z,4.16
2023-03-05T01:13:50.117Z,4.16
2023-03-05T01:14:50.105Z,4.18
2023-03-05T01:15:50.198Z,4.18
2023-03-05T01:16:50.077Z,4.22
2023-03-05T01:17:50.098Z,4.21
2023-03-05T01:18:50.154Z,4.25
2023-03-05T01:19:50.088Z,4.19
2023-03-05T01:20:50.057Z,4.18
2023-03-05T01:21:50.057Z,4.16
2023-03-05T01:22:50.027Z,4.18
2023-03-05T01:23:50.048Z,4.16
2023-03-05T01:24:50.039Z,4.18
2023-03-05T01:25:49.993Z,4.14
2023-03-05T01:26:49.982Z,4.15
2023-03-05T01:27:49.978Z,4.12
2023-03-05T01:28:49.967Z,4.10
2023-03-05T01:29:49.953Z,4.14
2023-03-05T01:30:49.971Z,4.15
2023-03-05T01:31:50.001Z,4.10
2023-03-05T01:32:49.930Z,4.12
2023-03-05T01:33:49.944Z,4.21
2023-03-05T01:34:49.919Z,4.15
2023-03-05T01:35:49.931Z,3.97
2023-03-05T01:36:49.887Z,3.90
2023-03-05T01:37:49.868Z,3.96
2023-03-05T01:38:49.843Z,4.01
2023-03-05T01:39:49.861Z,4.04
2023-03-05T01:40:49.851Z,4.04
2023-03-05T01:41:49.829Z,4.12
2023-03-05T01:42:49.806Z,4.24
2023-03-05T01:43:49.840Z,4.28
2023-03-05T01:44:49.795Z,4.29
2023-03-05T01:45:49.859Z,4.22
2023-03-05T01:46:49.782Z,4.18
2023-03-05T01:47:49.800Z,4.16
2023-03-05T01:48:49.817Z,4.12
2023-03-05T01:49:49.803Z,4.24
2023-03-05T01:50:49.749Z,4.29
2023-03-05T01:51:49.723Z,4.36
2023-03-05T01:52:49.789Z,4.28
2023-03-05T01:53:49.709Z,4.24
2023-03-05T01:54:49.692Z,4.18
2023-03-05T01:55:49.725Z,4.21
2023-03-05T01:56:49.677Z,4.18
2023-03-05T01:57:49.674Z,4.18
2023-03-05T01:58:49.652Z,4.16
2023-03-05T01:59:49.636Z,4.14
2023-03-05T02:00:49.676Z,4.14
2023-03-05T02:01:49.660Z,4.12
2023-03-05T02:02:49.668Z,4.10
2023-03-05T02:03:49.660Z,4.10
2023-03-05T02:04:49.615Z,4.06
2023-03-05T02:05:49.611Z,4.06
2023-03-05T02:06:49.564Z,4.04
2023-03-05T02:07:49.575Z,4.04
2023-03-05T02:08:49.564Z,4.14
2023-03-05T02:09:49.564Z,4.15
2023-03-05T02:10:49.521Z,4.12
2023-03-05T02:11:49.545Z,4.12
2023-03-05T02:12:49.618Z,4.06
2023-03-05T02:13:49.513Z,4.04
2023-03-05T02:14:49.485Z,4.01
2023-03-05T02:15:49.532Z,4.04
2023-03-05T02:16:49.490Z,4.03
2023-03-05T02:17:49.472Z,4.00
2023-03-05T02:18:49.495Z,4.03
2023-03-05T02:19:49.451Z,3.97
2023-03-05T02:20:49.435Z,3.97
2023-03-05T02:21:49.438Z,3.94
2023-03-05T02:22:49.429Z,3.98
2023-03-05T02:23:49.407Z,4.01
2023-03-05T02:24:49.392Z,3.97
2023-03-05T02:25:49.391Z,4.01
2023-03-05T02:26:49.406Z,3.97
2023-03-05T02:27:49.365Z,4.00
2023-03-05T02:28:49.356Z,4.07
2023-03-05T02:29:49.344Z,4.12
2023-03-05T02:30:49.372Z,4.12
2023-03-05T02:31:49.363Z,4.16
2023-03-05T02:32:49.309Z,4.12
2023-03-05T02:33:49.310Z,4.08
2023-03-05T02:34:49.297Z,4.07
2023-03-05T02:35:49.334Z,4.08
2023-03-05T02:36:49.257Z,4.10
2023-03-05T02:37:49.265Z,4.10
2023-03-05T02:38:49.269Z,4.07
2023-03-05T02:39:49.252Z,4.03
2023-03-05T02:40:49.225Z,3.98
2023-03-05T02:41:49.243Z,4.01
2023-03-05T02:42:49.202Z,3.96
2023-03-05T02:43:49.229Z,3.96
2023-03-05T02:44:49.189Z,3.97
2023-03-05T02:45:49.268Z,4.06
2023-03-05T02:46:49.191Z,4.06
2023-03-05T02:47:49.174Z,4.08
2023-03-05T02:48:49.151Z,4.07
2023-03-05T02:49:49.174Z,4.14
2023-03-05T02:50:49.142Z,4.14
2023-03-05T02:51:49.129Z,4.15
2023-03-05T02:52:49.134Z,4.15
2023-03-05T02:53:49.122Z,4.12
2023-03-05T02:54:49.077Z,4.01
2023-03-05T02:55:49.122Z,3.96
2023-03-05T02:56:49.077Z,3.88
2023-03-05T02:57:49.066Z,3.89
2023-03-05T02:58:49.045Z,3.97
2023-03-05T02:59:49.062Z,4.00
2023-03-05T03:00:49.068Z,3.98
2023-03-05T03:01:49.091Z,3.98
2023-03-05T03:02:49.080Z,4.01
2023-03-05T03:03:49.020Z,4.04
2023-03-05T03:04:49.018Z,4.04
2023-03-05T03:05:48.985Z,4.03
2023-03-05T03:06:48.995Z,4.04
2023-03-05T03:07:48.977Z,4.12
2023-03-05T03:08:48.947Z,4.22
2023-03-05T03:09:48.941Z,4.21
2023-03-05T03:10:48.915Z,4.22
2023-03-05T03:11:48.936Z,4.24
2023-03-05T03:12:48.898Z,4.29
2023-03-05T03:13:48.933Z,4.32
2023-03-05T03:14:48.888Z,4.25
2023-03-05T03:15:48.879Z,4.22
2023-03-05T03:16:48.939Z,4.24
2023-03-05T03:17:48.876Z,4.10
2023-03-05T03:18:49.074Z,4.08
2023-03-05T03:19:48.861Z,4.08
2023-03-05T03:20:48.841Z,4.08
2023-03-05T03:21:48.841Z,4.10
2023-03-05T03:22:48.808Z,4.15
2023-03-05T03:23:48.875Z,4.15
2023-03-05T03:24:48.777Z,4.15
2023-03-05T03:25:48.794Z,4.10
2023-03-05T03:26:48.779Z,4.07
2023-03-05T03:27:48.761Z,4.00
2023-03-05T03:28:48.772Z,3.97
2023-03-05T03:29:48.768Z,3.98
2023-03-05T03:30:48.743Z,4.06
2023-03-05T03:31:58.262Z,4.03
2023-03-05T03:32:48.692Z,4.07
2023-03-05T03:33:49.340Z,4.07
2023-03-05T03:34:49.293Z,4.08
2023-03-05T03:35:48.723Z,4.07
2023-03-05T03:36:48.663Z,4.10
2023-03-05T03:37:48.671Z,4.15
2023-03-05T03:38:48.672Z,4.18
2023-03-05T03:39:48.662Z,4.19
2023-03-05T03:40:48.623Z,4.16
2023-03-05T03:41:48.682Z,4.15
2023-03-05T03:42:48.643Z,4.08
2023-03-05T03:43:48.608Z,4.03
2023-03-05T03:44:48.583Z,4.04
2023-03-05T03:45:48.623Z,4.04
2023-03-05T03:46:48.576Z,4.03
2023-03-05T03:47:48.621Z,4.01
2023-03-05T03:48:48.552Z,3.98
2023-03-05T03:49:48.599Z,4.01
2023-03-05T03:50:48.524Z,4.00
2023-03-05T03:51:48.536Z,4.00
2023-03-05T03:52:48.514Z,4.01
2023-03-05T03:53:48.512Z,4.03
2023-03-05T03:54:48.514Z,4.04
2023-03-05T03:55:48.530Z,4.07
2023-03-05T03:56:48.481Z,4.08
2023-03-05T03:57:48.473Z,4.06
2023-03-05T03:58:48.453Z,4.00
2023-03-05T03:59:48.468Z,3.90
2023-03-05T04:00:48.443Z,3.83
2023-03-05T04:01:48.436Z,3.85
2023-03-05T04:02:48.452Z,3.78
2023-03-05T04:03:48.414Z,3.83
2023-03-05T04:04:48.425Z,3.80
2023-03-05T04:05:48.383Z,3.67
2023-03-05T04:06:48.392Z,3.61
2023-03-05T04:07:48.389Z,3.62
2023-03-05T04:08:48.352Z,3.61
2023-03-05T04:09:48.365Z,3.52
2023-03-05T04:10:48.354Z,3.47
2023-03-05T04:11:48.326Z,3.50
2023-03-05T04:12:48.341Z,3.60
2023-03-05T04:13:48.324Z,3.70
2023-03-05T04:14:48.326Z,3.70
2023-03-05T04:15:48.334Z,3.71
2023-03-05T04:16:48.274Z,3.57
2023-03-05T04:17:48.299Z,3.46
2023-03-05T04:18:48.267Z,3.39
2023-03-05T04:19:48.245Z,3.39
2023-03-05T04:20:48.230Z,3.39
2023-03-05T04:21:48.236Z,3.31
2023-03-05T04:22:48.211Z,3.39
2023-03-05T04:23:48.223Z,3.40
2023-03-05T04:24:48.192Z,3.42
2023-03-05T04:25:48.245Z,3.44
2023-03-05T04:26:48.184Z,3.49
2023-03-05T04:27:48.195Z,3.53
2023-03-05T04:28:48.177Z,3.57
2023-03-05T04:29:48.173Z,3.61
2023-03-05T04:30:48.206Z,3.68
2023-03-05T04:31:48.136Z,3.65
2023-03-05T04:32:48.094Z,3.71
2023-03-05T04:33:48.131Z,3.67
2023-03-05T04:34:48.079Z,3.70
2023-03-05T04:35:48.167Z,3.80
2023-03-05T04:36:48.078Z,3.83
2023-03-05T04:37:48.057Z,3.85
2023-03-05T04:38:48.081Z,3.88
2023-03-05T04:39:48.054Z,3.89
2023-03-05T04:40:48.066Z,3.90
2023-03-05T04:41:48.048Z,3.86
2023-03-05T04:42:48.008Z,3.68
2023-03-05T04:43:48.000Z,3.67
2023-03-05T04:44:48.006Z,3.64
2023-03-05T04:45:47.980Z,3.68
2023-03-05T04:46:48.033Z,3.75
2023-03-05T04:47:47.958Z,3.80
2023-03-05T04:48:47.975Z,3.86
2023-03-05T04:49:47.931Z,3.80
2023-03-05T04:50:47.932Z,3.78
2023-03-05T04:51:47.946Z,3.85
2023-03-05T04:52:47.901Z,3.79
2023-03-05T04:53:47.900Z,3.71
2023-03-05T04:54:47.887Z,3.62
2023-03-05T04:55:47.920Z,3.58
2023-03-05T04:56:47.864Z,3.53
2023-03-05T04:57:47.870Z,3.61
2023-03-05T04:58:47.835Z,3.57
2023-03-05T04:59:47.819Z,3.60
2023-03-05T05:00:47.865Z,3.62
2023-03-05T05:01:47.842Z,3.70
2023-03-05T05:02:47.903Z,3.68
2023-03-05T05:03:47.821Z,3.70
2023-03-05T05:04:47.824Z,3.71
2023-03-05T05:05:47.779Z,3.80
2023-03-05T05:06:47.779Z,3.90
2023-03-05T05:07:47.745Z,3.89
2023-03-05T05:08:47.766Z,3.89
2023-03-05T05:09:47.724Z,3.89
2023-03-05T05:10:47.724Z,3.79
2023-03-05T05:11:47.724Z,3.76
2023-03-05T05:12:47.704Z,3.80
2023-03-05T05:13:47.701Z,3.79
2023-03-05T05:14:47.688Z,3.75
2023-03-05T05:15:47.680Z,3.79
2023-03-05T05:16:47.677Z,3.75
2023-03-05T05:17:47.696Z,3.78
2023-03-05T05:18:47.665Z,3.75
2023-03-05T05:19:47.629Z,3.64
2023-03-05T05:20:47.629Z,3.71
2023-03-05T05:21:47.609Z,3.76
2023-03-05T05:22:47.609Z,3.80
2023-03-05T05:23:47.620Z,3.79
2023-03-05T05:24:47.618Z,3.79
2023-03-05T05:25:47.561Z,3.85
2023-03-05T05:26:47.571Z,3.85
2023-03-05T05:27:47.570Z,3.89
2023-03-05T05:28:47.572Z,3.92
2023-03-05T05:29:47.533Z,3.94
2023-03-05T05:30:47.509Z,3.89
2023-03-05T05:31:47.524Z,3.86
2023-03-05T05:32:47.498Z,3.86
2023-03-05T05:33:49.685Z,3.85
2023-03-05T05:34:47.511Z,3.83
2023-03-05T05:35:47.484Z,3.86
2023-03-05T05:36:47.459Z,3.89
2023-03-05T05:37:47.472Z,3.83
2023-03-05T05:38:47.465Z,3.88
2023-03-05T05:39:47.422Z,3.82
2023-03-05T05:40:47.487Z,3.88
2023-03-05T05:41:47.404Z,3.94
2023-03-05T05:42:47.405Z,3.97
2023-03-05T05:43:47.382Z,3.97
2023-03-05T05:44:47.379Z,3.85
2023-03-05T05:45:47.553Z,3.72
2023-03-05T05:46:47.405Z,3.68
2023-03-05T05:47:47.370Z,3.67
2023-03-05T05:48:47.330Z,3.65
2023-03-05T05:49:47.286Z,3.75
2023-03-05T05:50:47.370Z,3.79
2023-03-05T05:51:47.264Z,3.79
2023-03-05T05:52:47.261Z,3.76
2023-03-05T05:53:47.330Z,3.72
2023-03-05T05:54:47.231Z,3.75
2023-03-05T05:55:47.238Z,3.79
2023-03-05T05:56:47.309Z,3.83
2023-03-05T05:57:47.195Z,3.83
2023-03-05T05:58:47.223Z,3.79
2023-03-05T05:59:47.197Z,3.82
2023-03-05T06:00:47.167Z,3.79
2023-03-05T06:01:47.204Z,3.75
2023-03-05T06:02:47.289Z,3.64
2023-03-05T06:03:47.145Z,3.60
2023-03-05T06:04:47.138Z,3.53
2023-03-05T06:05:47.160Z,3.52
2023-03-05T06:06:47.147Z,3.50
2023-03-05T06:07:47.101Z,3.49
2023-03-05T06:08:47.130Z,3.47
2023-03-05T06:09:47.067Z,3.52
2023-03-05T06:10:47.101Z,3.54
2023-03-05T06:11:47.053Z,3.61
2023-03-05T06:12:47.052Z,3.61
2023-03-05T06:13:47.066Z,3.67
2023-03-05T06:14:47.017Z,3.64
2023-03-05T06:15:47.000Z,3.67
2023-03-05T06:16:47.084Z,3.75
2023-03-05T06:17:47.012Z,3.78
2023-03-05T06:18:46.990Z,3.79
2023-03-05T06:19:46.958Z,3.83
2023-03-05T06:20:46.963Z,3.88
2023-03-05T06:21:46.954Z,3.88
2023-03-05T06:22:46.983Z,3.90
2023-03-05T06:23:46.942Z,3.96
2023-03-05T06:24:46.922Z,3.96
2023-03-05T06:25:46.905Z,3.88
2023-03-05T06:26:46.906Z,3.80
2023-03-05T06:27:46.914Z,3.78
2023-03-05T06:28:46.911Z,3.79
2023-03-05T06:29:46.880Z,3.76
2023-03-05T06:30:46.893Z,3.65
2023-03-05T06:31:46.853Z,3.62
2023-03-05T06:32:46.859Z,3.60
2023-03-05T06:33:46.838Z,3.58
2023-03-05T06:34:46.828Z,3.60
2023-03-05T06:35:46.878Z,3.65
2023-03-05T06:36:46.813Z,3.75
2023-03-05T06:37:46.792Z,3.75
2023-03-05T06:38:48.461Z,3.79
2023-03-05T06:39:46.774Z,3.71
2023-03-05T06:40:46.766Z,3.65
2023-03-05T06:41:46.742Z,3.68
2023-03-05T06:42:46.841Z,3.65
2023-03-05T06:43:46.748Z,3.67
2023-03-05T06:44:48.238Z,3.67
2023-03-05T06:45:46.763Z,3.62
2023-03-05T06:46:46.692Z,3.65
2023-03-05T06:47:46.702Z,3.70
2023-03-05T06:48:46.693Z,3.68
2023-03-05T06:49:46.663Z,3.70
2023-03-05T06:50:46.662Z,3.78
2023-03-05T06:51:46.640Z,3.86
2023-03-05T06:52:46.635Z,3.90
2023-03-05T06:53:49.041Z,3.82
2023-03-05T06:54:46.619Z,3.79
2023-03-05T06:55:46.591Z,3.86
2023-03-05T06:56:46.642Z,3.92
2023-03-05T06:57:46.584Z,3.94
2023-03-05T06:58:46.569Z,3.97
2023-03-05T06:59:46.602Z,4.03
2023-03-05T07:00:46.608Z,4.06
2023-03-05T07:01:46.547Z,4.07
2023-03-05T07:02:46.574Z,4.15
2023-03-05T07:03:46.552Z,4.19
2023-03-05T07:04:46.522Z,4.19
2023-03-05T07:05:46.512Z,4.10
2023-03-05T07:06:46.515Z,4.07
2023-03-05T07:07:46.468Z,4.08
2023-03-05T07:08:46.492Z,4.06
2023-03-05T07:09:46.445Z,4.00
2023-03-05T07:10:46.456Z,4.01
2023-03-05T07:11:46.425Z,4.00
2023-03-05T07:12:46.436Z,4.03
2023-03-05T07:13:46.436Z,4.06
2023-03-05T07:14:46.414Z,4.08
2023-03-05T07:15:46.421Z,4.12
2023-03-05T07:16:46.421Z,4.04
2023-03-05T07:17:46.375Z,4.06
2023-03-05T07:18:46.383Z,3.96
2023-03-05T07:19:46.356Z,4.00
2023-03-05T07:20:46.342Z,3.98
2023-03-05T07:21:46.337Z,3.96
2023-03-05T07:22:46.356Z,4.00
2023-03-05T07:23:46.310Z,4.04
2023-03-05T07:24:46.328Z,4.07
2023-03-05T07:25:46.337Z,4.04
2023-03-05T07:26:47.995Z,4.08
2023-03-05T07:27:46.274Z,3.97
2023-03-05T07:28:46.273Z,3.94
2023-03-05T07:29:46.257Z,3.90
2023-03-05T07:30:46.272Z,3.89
2023-03-05T07:31:46.221Z,3.78
2023-03-05T07:32:46.261Z,3.76
2023-03-05T07:33:46.206Z,3.75
2023-03-05T07:34:46.226Z,3.75
2023-03-05T07:35:46.244Z,3.82
2023-03-05T07:36:46.183Z,3.92
2023-03-05T07:37:46.174Z,3.94
2023-03-05T07:38:46.184Z,3.86
2023-03-05T07:39:47.282Z,3.83
2023-03-05T07:40:46.152Z,3.78
2023-03-05T07:41:46.145Z,3.68
2023-03-05T07:42:46.133Z,3.67
2023-03-05T07:43:46.138Z,3.64
2023-03-05T07:44:46.102Z,3.65
2023-03-05T07:45:46.213Z,3.72
2023-03-05T07:46:46.080Z,3.79
2023-03-05T07:47:46.068Z,3.76
2023-03-05T07:48:46.073Z,3.68
2023-03-05T07:49:46.069Z,3.61
2023-03-05T07:50:46.053Z,3.68
2023-03-05T07:51:46.026Z,3.79
2023-03-05T07:52:46.030Z,3.86
2023-03-05T07:53:46.066Z,3.85
2023-03-05T07:54:46.005Z,3.94
2023-03-05T07:55:45.992Z,3.92
2023-03-05T07:56:45.989Z,3.85
2023-03-05T07:57:45.983Z,3.82
2023-03-05T07:58:45.973Z,3.79
2023-03-05T07:59:45.949Z,3.75
2023-03-05T08:00:45.968Z,3.72
2023-03-05T08:01:45.945Z,3.78
2023-03-05T08:02:45.970Z,3.82
2023-03-05T08:03:45.938Z,3.83
2023-03-05T08:04:45.929Z,3.89
2023-03-05T08:05:45.885Z,3.97
2023-03-05T08:06:45.899Z,4.04
2023-03-05T08:07:45.862Z,4.06
2023-03-05T08:08:45.857Z,4.07
2023-03-05T08:09:45.849Z,4.06
2023-03-05T08:10:45.861Z,4.12
2023-03-05T08:11:45.839Z,4.16
2023-03-05T08:12:45.841Z,4.19
2023-03-05T08:13:45.817Z,4.21
2023-03-05T08:14:45.780Z,4.22
2023-03-05T08:15:45.825Z,4.16
2023-03-05T08:16:48.148Z,4.19
2023-03-05T08:17:45.750Z,4.24
2023-03-05T08:18:45.759Z,4.26
2023-03-05T08:19:45.747Z,4.32
2023-03-05T08:20:45.733Z,4.40
2023-03-05T08:21:45.720Z,4.52
2023-03-05T08:22:45.713Z,4.58
2023-03-05T08:23:45.722Z,4.58
2023-03-05T08:24:45.724Z,4.58
2023-03-05T08:25:45.694Z,4.61
2023-03-05T08:26:45.675Z,4.61
2023-03-05T08:27:45.668Z,4.58
2023-03-05T08:28:45.661Z,4.59
2023-03-05T08:29:45.663Z,4.62
2023-03-05T08:30:45.629Z,4.64
2023-03-05T08:31:45.610Z,4.64
2023-03-05T08:32:45.627Z,4.61
2023-03-05T08:33:45.621Z,4.59
2023-03-05T08:34:45.600Z,4.64
2023-03-05T08:35:45.619Z,4.64
2023-03-05T08:36:45.590Z,4.69
2023-03-05T08:37:45.580Z,4.62
2023-03-05T08:38:45.561Z,4.61
2023-03-05T08:39:45.540Z,4.50
2023-03-05T08:40:45.550Z,4.42
2023-03-05T08:41:45.510Z,4.37
2023-03-05T08:42:45.506Z,4.29
2023-03-05T08:43:45.497Z,4.10
2023-03-05T08:44:45.536Z,4.01
2023-03-05T08:45:45.489Z,4.01
2023-03-05T08:46:45.564Z,4.03
2023-03-05T08:47:45.461Z,3.98
2023-03-05T08:48:45.460Z,4.10
2023-03-05T08:49:45.516Z,4.19
2023-03-05T08:50:45.443Z,4.21
2023-03-05T08:51:45.434Z,4.14
2023-03-05T08:52:45.429Z,4.15
2023-03-05T08:53:45.394Z,4.08
2023-03-05T08:54:45.390Z,4.06
2023-03-05T08:55:45.362Z,4.10
2023-03-05T08:56:45.374Z,4.12
2023-03-05T08:57:45.376Z,4.12
2023-03-05T08:58:45.364Z,4.08
2023-03-05T08:59:45.356Z,4.07
2023-03-05T09:00:45.327Z,4.10
2023-03-05T09:01:45.400Z,4.12
2023-03-05T09:02:45.359Z,4.16
2023-03-05T09:03:45.294Z,4.22
2023-03-05T09:04:45.296Z,4.18
2023-03-05T09:05:45.274Z,4.22
2023-03-05T09:06:45.284Z,4.25
2023-03-05T09:07:45.278Z,4.33
2023-03-05T09:08:45.248Z,4.37
2023-03-05T09:09:45.230Z,4.39
2023-03-05T09:10:45.252Z,4.51
2023-03-05T09:11:45.208Z,4.55
2023-03-05T09:12:45.279Z,4.50
2023-03-05T09:13:45.188Z,4.47
2023-03-05T09:14:45.204Z,4.47
2023-03-05T09:15:45.216Z,4.51
2023-03-05T09:16:45.194Z,4.55
2023-03-05T09:17:45.159Z,4.59
2023-03-05T09:18:45.217Z,4.65
2023-03-05T09:19:45.138Z,4.69
2023-03-05T09:20:45.124Z,4.77
2023-03-05T09:21:45.134Z,4.76
2023-03-05T09:22:45.104Z,4.79
2023-03-05T09:23:45.100Z,4.80
2023-03-05T09:24:45.081Z,4.80
2023-03-05T09:25:45.073Z,4.86
2023-03-05T09:26:45.071Z,4.91
2023-03-05T09:27:45.082Z,4.94
2023-03-05T09:28:45.050Z,4.92
2023-03-05T09:29:45.034Z,4.98
2023-03-05T09:30:45.005Z,4.94
2023-03-05T09:31:45.057Z,4.95
2023-03-05T09:32:45.053Z,4.95
2023-03-05T09:33:45.008Z,4.84
2023-03-05T09:34:44.985Z,4.75
2023-03-05T09:35:45.018Z,4.75
2023-03-05T09:36:44.973Z,4.77
2023-03-05T09:37:44.984Z,4.88
2023-03-05T09:38:44.941Z,4.99
2023-03-05T09:39:44.941Z,5.04
2023-03-05T09:40:44.942Z,5.02
2023-03-05T09:41:44.945Z,5.04
2023-03-05T09:42:44.894Z,5.07
2023-03-05T09:43:44.921Z,5.07
2023-03-05T09:44:44.886Z,5.05
2023-03-05T09:45:44.936Z,5.05
2023-03-05T09:46:44.913Z,5.05
2023-03-05T09:47:44.864Z,5.07
2023-03-05T09:48:44.850Z,5.01
2023-03-05T09:49:44.832Z,4.91
2023-03-05T09:50:44.830Z,4.91
2023-03-05T09:51:44.838Z,4.95
2023-03-05T09:52:44.802Z,4.99
2023-03-05T09:53:44.816Z,5.01
2023-03-05T09:54:44.821Z,4.99
2023-03-05T09:55:44.784Z,4.95
2023-03-05T09:56:44.853Z,4.92
2023-03-05T09:57:44.748Z,4.89
2023-03-05T09:58:44.743Z,4.92
2023-03-05T09:59:44.785Z,4.96
2023-03-05T10:00:44.759Z,5.05
2023-03-05T10:01:44.877Z,5.10
2023-03-05T10:02:44.727Z,5.16
2023-03-05T10:03:44.746Z,5.20
2023-03-05T10:04:44.682Z,5.27
2023-03-05T10:05:44.665Z,5.28
2023-03-05T10:06:44.675Z,5.31
2023-03-05T10:07:44.678Z,5.25
2023-03-05T10:08:44.658Z,5.13
2023-03-05T10:09:44.626Z,4.88
2023-03-05T10:10:44.629Z,4.22
2023-03-05T10:11:44.650Z,3.82
2023-03-05T10:12:44.611Z,3.46
2023-03-05T10:13:44.590Z,3.10
2023-03-05T10:14:44.617Z,2.89
2023-03-05T10:15:44.626Z,2.82
2023-03-05T10:16:44.695Z,2.79
2023-03-05T10:17:44.648Z,2.73
2023-03-05T10:18:44.544Z,2.64
2023-03-05T10:19:44.551Z,2.51
2023-03-05T10:20:44.596Z,2.40
2023-03-05T10:21:44.590Z,2.38
2023-03-05T10:22:44.509Z,2.35
2023-03-05T10:23:44.495Z,2.31
2023-03-05T10:24:44.570Z,2.30
2023-03-05T10:25:44.483Z,2.33
2023-03-05T10:26:44.489Z,2.31
2023-03-05T10:27:44.536Z,2.31
2023-03-05T10:28:44.464Z,2.31
2023-03-05T10:29:44.440Z,2.34
2023-03-05T10:30:44.475Z,2.38
2023-03-05T10:31:44.502Z,2.41
2023-03-05T10:32:44.466Z,2.51
2023-03-05T10:33:44.416Z,2.49
2023-03-05T10:34:44.469Z,2.55
2023-03-05T10:35:44.407Z,2.56
2023-03-05T10:36:44.362Z,2.71
2023-03-05T10:37:44.375Z,2.85
2023-03-05T10:38:44.364Z,2.88
2023-03-05T10:39:44.355Z,2.87
2023-03-05T10:40:44.340Z,2.94
2023-03-05T10:41:44.301Z,3.03
2023-03-05T10:42:44.303Z,3.13
2023-03-05T10:43:44.319Z,3.18
2023-03-05T10:44:44.281Z,3.21
2023-03-05T10:45:44.335Z,3.23
2023-03-05T10:46:44.274Z,3.43
2023-03-05T10:47:44.334Z,3.53
2023-03-05T10:48:44.241Z,3.54
2023-03-05T10:49:44.228Z,3.70
2023-03-05T10:50:44.256Z,3.85
2023-03-05T10:51:44.217Z,3.88
2023-03-05T10:52:44.216Z,3.98
2023-03-05T10:53:44.264Z,4.08
2023-03-05T10:54:44.166Z,4.21
2023-03-05T10:55:44.188Z,4.34
2023-03-05T10:56:44.190Z,4.40
2023-03-05T10:57:44.156Z,4.50
2023-03-05T10:58:44.137Z,4.58
2023-03-05T10:59:44.201Z,4.67
2023-03-05T11:00:44.109Z,4.64
2023-03-05T11:01:44.155Z,4.64
2023-03-05T11:02:44.144Z,4.75
2023-03-05T11:03:44.116Z,4.91
2023-03-05T11:04:44.079Z,5.02
2023-03-05T11:05:44.070Z,5.09
2023-03-05T11:06:44.102Z,5.17
2023-03-05T11:07:44.090Z,5.09
2023-03-05T11:08:44.032Z,5.07
2023-03-05T11:09:44.069Z,5.22
2023-03-05T11:10:44.008Z,5.31
2023-03-05T11:11:44.026Z,5.27
2023-03-05T11:12:44.011Z,5.12
2023-03-05T11:13:43.996Z,5.02
2023-03-05T11:14:43.992Z,5.02
2023-03-05T11:15:44.001Z,5.04
2023-03-05T11:16:43.942Z,5.07
2023-03-05T11:17:43.957Z,4.99
2023-03-05T11:18:43.923Z,4.94
2023-03-05T11:19:43.940Z,4.91
2023-03-05T11:20:43.900Z,5.05
2023-03-05T11:21:43.934Z,5.14
2023-03-05T11:22:43.949Z,5.25
2023-03-05T11:23:43.880Z,5.40
2023-03-05T11:24:43.861Z,5.37
2023-03-05T11:25:43.876Z,5.38
2023-03-05T11:26:43.882Z,5.50
2023-03-05T11:27:43.880Z,5.57
2023-03-05T11:28:43.863Z,5.66
2023-03-05T11:29:43.831Z,5.70
2023-03-05T11:30:43.809Z,5.75
2023-03-05T11:31:43.800Z,5.88
2023-03-05T11:32:43.825Z,5.91
2023-03-05T11:33:43.772Z,5.95
2023-03-05T11:34:43.761Z,5.86
2023-03-05T11:35:43.868Z,5.93
2023-03-05T11:36:43.745Z,5.88
2023-03-05T11:37:43.743Z,5.81
2023-03-05T11:38:43.797Z,5.96
2023-03-05T11:39:43.720Z,6.10
2023-03-05T11:40:43.692Z,6.25
2023-03-05T11:41:43.722Z,6.28
2023-03-05T11:42:43.708Z,6.25
2023-03-05T11:43:43.683Z,6.28
2023-03-05T11:44:43.651Z,6.32
2023-03-05T11:45:43.680Z,6.38
2023-03-05T11:46:43.663Z,6.26
2023-03-05T11:47:43.652Z,6.07
2023-03-05T11:48:43.659Z,5.82
2023-03-05T11:49:43.646Z,5.74
2023-03-05T11:50:43.604Z,5.68
2023-03-05T11:51:43.597Z,5.82
2023-03-05T11:52:43.568Z,5.85
2023-03-05T11:53:43.602Z,5.86
2023-03-05T11:54:43.570Z,5.92
2023-03-05T11:55:43.566Z,6.06
2023-03-05T11:56:43.546Z,6.09
2023-03-05T11:57:43.538Z,6.16
2023-03-05T11:58:43.523Z,6.18
2023-03-05T11:59:43.536Z,6.26
2023-03-05T12:00:43.520Z,6.36
2023-03-05T12:01:43.500Z,6.29
2023-03-05T12:02:43.563Z,6.28
2023-03-05T12:03:43.585Z,6.30
2023-03-05T12:04:43.456Z,6.25
2023-03-05T12:05:43.523Z,6.29
2023-03-05T12:06:43.434Z,6.22
2023-03-05T12:07:43.433Z,6.14
2023-03-05T12:08:43.454Z,6.21
2023-03-05T12:09:43.459Z,6.22
2023-03-05T12:10:43.401Z,6.21
2023-03-05T12:11:43.437Z,6.25
2023-03-05T12:12:43.400Z,6.32
2023-03-05T12:13:43.381Z,6.30
2023-03-05T12:14:43.391Z,6.33
2023-03-05T12:15:43.577Z,6.25
2023-03-05T12:16:43.854Z,6.14
2023-03-05T12:17:43.386Z,6.03
2023-03-05T12:18:43.338Z,5.78
2023-03-05T12:19:43.326Z,5.68
2023-03-05T12:20:43.363Z,5.66
2023-03-05T12:21:43.391Z,5.63
2023-03-05T12:22:43.380Z,5.66
2023-03-05T12:23:43.296Z,5.71
2023-03-05T12:24:43.250Z,5.77
2023-03-05T12:25:43.258Z,5.83
2023-03-05T12:26:43.254Z,5.88
2023-03-05T12:27:43.648Z,6.00
2023-03-05T12:28:43.219Z,6.07
2023-03-05T12:29:43.244Z,6.16
2023-03-05T12:30:43.646Z,6.11
2023-03-05T12:31:43.312Z,6.14
2023-03-05T12:32:43.333Z,6.19
2023-03-05T12:33:43.180Z,6.29
2023-03-05T12:34:43.171Z,6.32
2023-03-05T12:35:43.235Z,6.32
2023-03-05T12:36:43.662Z,6.36
2023-03-05T12:37:43.138Z,6.46
2023-03-05T12:38:43.118Z,6.46
2023-03-05T12:39:43.843Z,6.48
2023-03-05T12:40:43.101Z,6.53
2023-03-05T12:41:43.096Z,6.54
2023-03-05T12:42:43.136Z,6.63
2023-03-05T12:43:43.082Z,6.66
2023-03-05T12:44:43.062Z,6.66
2023-03-05T12:45:43.076Z,6.63
2023-03-05T12:46:43.105Z,6.65
2023-03-05T12:47:43.058Z,6.62
2023-03-05T12:48:43.072Z,6.56
2023-03-05T12:49:43.021Z,6.59
2023-03-05T12:50:43.034Z,6.61
2023-03-05T12:51:43.003Z,6.62
2023-03-05T12:52:42.996Z,6.63
2023-03-05T12:53:43.000Z,6.69
2023-03-05T12:54:43.031Z,6.68
2023-03-05T12:55:42.965Z,6.68
2023-03-05T12:56:42.974Z,6.62
2023-03-05T12:57:42.938Z,6.61
2023-03-05T12:58:42.950Z,6.66
2023-03-05T12:59:42.912Z,6.72
2023-03-05T13:00:43.017Z,6.79
2023-03-05T13:01:42.902Z,6.81
2023-03-05T13:02:42.882Z,6.87
2023-03-05T13:03:42.921Z,6.90
2023-03-05T13:04:42.848Z,6.91
2023-03-05T13:05:42.846Z,6.95
2023-03-05T13:06:42.837Z,6.95
2023-03-05T13:07:42.843Z,6.97
2023-03-05T13:08:42.820Z,6.90
2023-03-05T13:09:42.868Z,6.80
2023-03-05T13:10:42.786Z,6.66
2023-03-05T13:11:42.826Z,6.76
2023-03-05T13:12:42.823Z,6.76
2023-03-05T13:13:42.792Z,6.66
2023-03-05T13:14:42.741Z,6.72
2023-03-05T13:15:42.742Z,6.76
2023-03-05T13:16:42.816Z,6.81
2023-03-05T13:17:42.731Z,6.83
2023-03-05T13:18:42.707Z,6.80